Portada
METAR-TAF:

METAR-TAF

Aeropuertos :

La Gomera, España

Aeropuerto de La Gomera

latitud: 28-01-47N, longitud: 017-12-53W, altitud: 218 m

Observación

El informe se hizo hace 10 minutos, a las 14:00 UTC
Viento 6 kt del sur-suroeste, variando entre sur-sureste y oeste-suroeste
Temperatura 21°C
Humedad 56%
Presión 1019 hPa
Visibilidad 10 km o más
Escasas nubes a una altura de 3500 ft

METAR: GCGM 241400Z 20006KT 160V250 9999 FEW035 21/12 Q1019 RMK R09/17004KT 100V240 ARP/21005KT 160V260

Hora: 15:10 (14:10 UTC)

Pronóstico

El informe se hizo hace 6 horas y 10 minutos, a las 08:00 UTC
Pronóstico válido del 24 a las 09 UTC al 25 a las 09 UTC
Viento 7 kt del suroeste
Visibilidad 10 km o más
Nubes dispersas a una altura de 3000 ft

TAF: GCGM 240800Z 2409/2509 23007KT 9999 SCT030 TX22/2414Z TN17/2505Z

Observaciones y pronósticos meteorológicos de más de 4000 aeropuertos (mensajes METAR y TAF).

Los puntos amarillos y rojos representan las estaciones disponibles.

Ponga el ratón en el punto deseado para ver el nombre de la estación.

Haga clic para ver las observaciones y los pronósticos meteorológicos.

Para cambiar el mapa : haga clic en los botones verdes con una cruz de color negro para hacer un zoom, en el botón verde con un guión para alejar o en las flechas verdes para mapas adyacentes.


METAR-TAF: